sensor_id;sensor_type;location;lat;lon;timestamp;pressure;altitude;pressure_sealevel;temperature;humidity
55538;BME280;41383;51.418;7.286;2023-06-22T00:02:04;100103.97;;;23.78;54.57
55538;BME280;41383;51.418;7.286;2023-06-22T00:04:30;100106.53;;;23.83;54.39
55538;BME280;41383;51.418;7.286;2023-06-22T00:06:55;100106.66;;;23.74;54.99
55538;BME280;41383;51.418;7.286;2023-06-22T00:09:20;100119.16;;;23.68;54.81
55538;BME280;41383;51.418;7.286;2023-06-22T00:11:45;100111.38;;;23.74;54.86
55538;BME280;41383;51.418;7.286;2023-06-22T00:14:11;100110.94;;;23.72;55.35
55538;BME280;41383;51.418;7.286;2023-06-22T00:16:36;100104.91;;;23.70;55.40
55538;BME280;41383;51.418;7.286;2023-06-22T00:19:01;100113.00;;;23.62;55.50
55538;BME280;41383;51.418;7.286;2023-06-22T00:21:27;100114.41;;;23.69;55.02
55538;BME280;41383;51.418;7.286;2023-06-22T00:23:52;100108.16;;;23.72;55.23
55538;BME280;41383;51.418;7.286;2023-06-22T00:26:18;100112.56;;;23.73;55.27
55538;BME280;41383;51.418;7.286;2023-06-22T00:28:44;100117.66;;;23.71;55.51
55538;BME280;41383;51.418;7.286;2023-06-22T00:31:09;100115.47;;;23.76;55.16
55538;BME280;41383;51.418;7.286;2023-06-22T00:33:35;100115.59;;;23.67;55.46
55538;BME280;41383;51.418;7.286;2023-06-22T00:36:00;100112.66;;;23.64;55.70
55538;BME280;41383;51.418;7.286;2023-06-22T00:38:28;100114.88;;;23.58;55.90
55538;BME280;41383;51.418;7.286;2023-06-22T00:40:53;100108.59;;;23.49;56.23
55538;BME280;41383;51.418;7.286;2023-06-22T00:43:18;100115.41;;;23.51;56.28
55538;BME280;41383;51.418;7.286;2023-06-22T00:45:43;100113.00;;;23.50;56.28
55538;BME280;41383;51.418;7.286;2023-06-22T00:48:09;100108.78;;;23.43;56.48
55538;BME280;41383;51.418;7.286;2023-06-22T00:50:35;100104.88;;;23.44;56.30
55538;BME280;41383;51.418;7.286;2023-06-22T00:53:06;100099.59;;;23.30;56.71
55538;BME280;41383;51.418;7.286;2023-06-22T00:55:42;100108.31;;;23.29;56.42
55538;BME280;41383;51.418;7.286;2023-06-22T00:58:12;100110.13;;;23.25;57.45
55538;BME280;41383;51.418;7.286;2023-06-22T01:00:38;100114.78;;;23.33;57.40
55538;BME280;41383;51.418;7.286;2023-06-22T01:03:04;100105.38;;;23.25;57.41
55538;BME280;41383;51.418;7.286;2023-06-22T01:05:34;100108.72;;;23.18;57.80
55538;BME280;41383;51.418;7.286;2023-06-22T01:08:42;100101.41;;;23.14;57.97
55538;BME280;41383;51.418;7.286;2023-06-22T01:11:20;100101.28;;;23.10;58.22
55538;BME280;41383;51.418;7.286;2023-06-22T01:18:43;100104.78;;;23.19;58.06
55538;BME280;41383;51.418;7.286;2023-06-22T01:21:12;100100.38;;;23.18;58.25
55538;BME280;41383;51.418;7.286;2023-06-22T01:24:30;100084.59;;;23.10;58.08
55538;BME280;41383;51.418;7.286;2023-06-22T01:26:38;100088.53;;;23.09;58.38
55538;BME280;41383;51.418;7.286;2023-06-22T01:29:08;100091.09;;;23.14;58.22
55538;BME280;41383;51.418;7.286;2023-06-22T01:31:34;100091.22;;;23.18;58.21
55538;BME280;41383;51.418;7.286;2023-06-22T01:34:02;100086.44;;;23.06;58.57
55538;BME280;41383;51.418;7.286;2023-06-22T01:36:29;100093.53;;;23.16;58.33
55538;BME280;41383;51.418;7.286;2023-06-22T01:38:56;100085.31;;;23.19;58.10
55538;BME280;41383;51.418;7.286;2023-06-22T01:41:25;100083.91;;;23.13;58.18
55538;BME280;41383;51.418;7.286;2023-06-22T01:43:51;100083.25;;;23.16;58.22
55538;BME280;41383;51.418;7.286;2023-06-22T01:46:18;100083.19;;;23.04;58.65
55538;BME280;41383;51.418;7.286;2023-06-22T01:48:45;100082.72;;;23.02;58.88
55538;BME280;41383;51.418;7.286;2023-06-22T01:51:10;100077.41;;;23.09;58.76
55538;BME280;41383;51.418;7.286;2023-06-22T01:53:36;100075.91;;;23.12;58.74
55538;BME280;41383;51.418;7.286;2023-06-22T01:56:01;100082.50;;;23.07;58.92
55538;BME280;41383;51.418;7.286;2023-06-22T01:58:28;100080.41;;;23.04;59.09
55538;BME280;41383;51.418;7.286;2023-06-22T02:01:01;100079.94;;;23.02;59.18
55538;BME280;41383;51.418;7.286;2023-06-22T02:03:34;100073.91;;;23.00;59.42
55538;BME280;41383;51.418;7.286;2023-06-22T02:06:05;100081.09;;;23.01;59.19
55538;BME280;41383;51.418;7.286;2023-06-22T02:08:37;100074.59;;;22.96;59.42
55538;BME280;41383;51.418;7.286;2023-06-22T02:11:03;100079.00;;;22.97;59.22
55538;BME280;41383;51.418;7.286;2023-06-22T02:13:29;100079.59;;;23.03;59.25
55538;BME280;41383;51.418;7.286;2023-06-22T02:15:56;100075.53;;;23.01;59.27
55538;BME280;41383;51.418;7.286;2023-06-22T02:18:21;100072.28;;;22.98;59.38
55538;BME280;41383;51.418;7.286;2023-06-22T02:20:46;100077.72;;;22.95;59.35
55538;BME280;41383;51.418;7.286;2023-06-22T02:23:12;100081.38;;;22.86;59.88
55538;BME280;41383;51.418;7.286;2023-06-22T02:25:37;100071.56;;;22.89;59.99
55538;BME280;41383;51.418;7.286;2023-06-22T02:28:03;100076.88;;;22.94;59.23
55538;BME280;41383;51.418;7.286;2023-06-22T02:30:28;100078.94;;;22.85;59.89
55538;BME280;41383;51.418;7.286;2023-06-22T02:32:53;100071.97;;;22.79;60.14
55538;BME280;41383;51.418;7.286;2023-06-22T02:35:27;100073.94;;;22.78;60.17
55538;BME280;41383;51.418;7.286;2023-06-22T02:37:57;100061.63;;;22.67;60.88
55538;BME280;41383;51.418;7.286;2023-06-22T02:40:22;100061.13;;;22.65;61.05
55538;BME280;41383;51.418;7.286;2023-06-22T02:42:47;100056.88;;;22.67;61.07
55538;BME280;41383;51.418;7.286;2023-06-22T02:45:13;100059.19;;;22.65;61.06
55538;BME280;41383;51.418;7.286;2023-06-22T02:47:38;100061.97;;;22.65;60.99
55538;BME280;41383;51.418;7.286;2023-06-22T02:50:03;100059.69;;;22.58;61.78
55538;BME280;41383;51.418;7.286;2023-06-22T02:52:29;100062.00;;;22.56;61.41
55538;BME280;41383;51.418;7.286;2023-06-22T02:54:54;100057.50;;;22.51;61.68
55538;BME280;41383;51.418;7.286;2023-06-22T02:57:19;100062.34;;;22.55;61.58
55538;BME280;41383;51.418;7.286;2023-06-22T02:59:44;100055.97;;;22.54;61.25
55538;BME280;41383;51.418;7.286;2023-06-22T03:02:10;100054.72;;;22.51;61.74
55538;BME280;41383;51.418;7.286;2023-06-22T03:04:36;100064.06;;;22.47;61.95
55538;BME280;41383;51.418;7.286;2023-06-22T03:07:01;100054.56;;;22.48;62.05
55538;BME280;41383;51.418;7.286;2023-06-22T03:09:28;100046.84;;;22.54;61.88
55538;BME280;41383;51.418;7.286;2023-06-22T03:11:54;100039.66;;;22.53;61.96
55538;BME280;41383;51.418;7.286;2023-06-22T03:14:19;100043.72;;;22.55;61.78
55538;BME280;41383;51.418;7.286;2023-06-22T03:16:45;100041.28;;;22.54;61.82
55538;BME280;41383;51.418;7.286;2023-06-22T03:19:10;100038.97;;;22.56;62.13
55538;BME280;41383;51.418;7.286;2023-06-22T03:21:37;100026.03;;;22.60;61.36
55538;BME280;41383;51.418;7.286;2023-06-22T03:24:04;100034.34;;;22.60;61.56
55538;BME280;41383;51.418;7.286;2023-06-22T03:26:29;100027.19;;;22.59;61.68
55538;BME280;41383;51.418;7.286;2023-06-22T03:28:55;100039.41;;;22.67;61.33
55538;BME280;41383;51.418;7.286;2023-06-22T03:31:21;100041.53;;;22.61;61.81
55538;BME280;41383;51.418;7.286;2023-06-22T03:33:47;100037.13;;;22.60;61.75
55538;BME280;41383;51.418;7.286;2023-06-22T03:36:14;100035.88;;;22.57;61.91
55538;BME280;41383;51.418;7.286;2023-06-22T03:38:41;100026.25;;;22.55;62.24
55538;BME280;41383;51.418;7.286;2023-06-22T03:41:06;100028.31;;;22.58;62.22
55538;BME280;41383;51.418;7.286;2023-06-22T03:43:32;100027.47;;;22.66;61.14
55538;BME280;41383;51.418;7.286;2023-06-22T03:45:57;100024.06;;;22.60;61.51
55538;BME280;41383;51.418;7.286;2023-06-22T03:48:22;100030.44;;;22.61;61.59
55538;BME280;41383;51.418;7.286;2023-06-22T03:50:47;100036.28;;;22.68;61.41
55538;BME280;41383;51.418;7.286;2023-06-22T03:53:13;100020.78;;;22.67;61.51
55538;BME280;41383;51.418;7.286;2023-06-22T03:55:47;100014.03;;;22.68;61.60
55538;BME280;41383;51.418;7.286;2023-06-22T03:58:12;100012.56;;;22.71;61.96
55538;BME280;41383;51.418;7.286;2023-06-22T04:00:38;100007.75;;;22.59;62.43
55538;BME280;41383;51.418;7.286;2023-06-22T04:03:03;100013.31;;;22.59;62.66
55538;BME280;41383;51.418;7.286;2023-06-22T04:05:28;100012.81;;;22.57;62.74
55538;BME280;41383;51.418;7.286;2023-06-22T04:07:54;100001.97;;;22.64;62.92
55538;BME280;41383;51.418;7.286;2023-06-22T04:10:19;100005.25;;;22.66;62.81
55538;BME280;41383;51.418;7.286;2023-06-22T04:12:44;100003.88;;;22.72;62.69
55538;BME280;41383;51.418;7.286;2023-06-22T04:15:10;100008.50;;;22.68;62.73
55538;BME280;41383;51.418;7.286;2023-06-22T04:17:36;100010.00;;;22.66;63.06
55538;BME280;41383;51.418;7.286;2023-06-22T04:20:02;100011.53;;;22.76;62.80
55538;BME280;41383;51.418;7.286;2023-06-22T04:22:29;100014.03;;;22.68;62.77
55538;BME280;41383;51.418;7.286;2023-06-22T04:24:54;100025.94;;;22.90;62.06
55538;BME280;41383;51.418;7.286;2023-06-22T04:27:19;100019.91;;;22.88;62.37
55538;BME280;41383;51.418;7.286;2023-06-22T04:29:45;100021.97;;;22.79;62.88
55538;BME280;41383;51.418;7.286;2023-06-22T04:32:14;100012.13;;;22.60;63.11
55538;BME280;41383;51.418;7.286;2023-06-22T04:34:40;100015.22;;;22.67;63.32
55538;BME280;41383;51.418;7.286;2023-06-22T04:37:05;100015.69;;;22.69;63.07
55538;BME280;41383;51.418;7.286;2023-06-22T04:39:30;100020.16;;;22.61;63.41
55538;BME280;41383;51.418;7.286;2023-06-22T04:41:56;100016.06;;;22.59;63.72
55538;BME280;41383;51.418;7.286;2023-06-22T04:44:25;100014.25;;;22.63;63.28
55538;BME280;41383;51.418;7.286;2023-06-22T04:46:51;100018.25;;;22.74;62.96
55538;BME280;41383;51.418;7.286;2023-06-22T04:49:24;100010.78;;;22.66;63.42
55538;BME280;41383;51.418;7.286;2023-06-22T04:52:07;100004.97;;;22.59;63.42
55538;BME280;41383;51.418;7.286;2023-06-22T04:54:34;100013.78;;;22.61;62.87
55538;BME280;41383;51.418;7.286;2023-06-22T04:57:01;100026.25;;;22.55;62.90
55538;BME280;41383;51.418;7.286;2023-06-22T04:59:27;100018.63;;;22.64;62.39
55538;BME280;41383;51.418;7.286;2023-06-22T05:01:55;100018.00;;;22.67;62.25
55538;BME280;41383;51.418;7.286;2023-06-22T05:04:22;100025.16;;;22.68;62.34
55538;BME280;41383;51.418;7.286;2023-06-22T05:06:51;100024.28;;;22.77;61.45
55538;BME280;41383;51.418;7.286;2023-06-22T05:09:17;100035.44;;;22.89;61.09
55538;BME280;41383;51.418;7.286;2023-06-22T05:11:42;100022.13;;;22.95;60.55
55538;BME280;41383;51.418;7.286;2023-06-22T05:14:08;100025.25;;;22.93;61.13
55538;BME280;41383;51.418;7.286;2023-06-22T05:16:33;100026.06;;;22.94;61.37
55538;BME280;41383;51.418;7.286;2023-06-22T05:18:58;100015.75;;;22.94;61.33
55538;BME280;41383;51.418;7.286;2023-06-22T05:21:26;100013.19;;;22.89;61.71
55538;BME280;41383;51.418;7.286;2023-06-22T05:23:52;100012.59;;;22.83;62.25
55538;BME280;41383;51.418;7.286;2023-06-22T05:26:19;100025.69;;;22.83;62.06
55538;BME280;41383;51.418;7.286;2023-06-22T05:28:45;100017.94;;;22.89;61.72
55538;BME280;41383;51.418;7.286;2023-06-22T05:31:14;100032.41;;;22.94;61.67
55538;BME280;41383;51.418;7.286;2023-06-22T05:33:43;100034.03;;;22.83;62.18
55538;BME280;41383;51.418;7.286;2023-06-22T05:36:09;100025.00;;;22.86;61.78
55538;BME280;41383;51.418;7.286;2023-06-22T05:38:35;100024.84;;;22.82;61.82
55538;BME280;41383;51.418;7.286;2023-06-22T05:41:01;100025.13;;;22.90;61.71
55538;BME280;41383;51.418;7.286;2023-06-22T05:43:26;100022.00;;;22.91;61.88
55538;BME280;41383;51.418;7.286;2023-06-22T05:45:51;100022.00;;;22.91;61.85
55538;BME280;41383;51.418;7.286;2023-06-22T05:48:17;100019.69;;;22.93;61.45
55538;BME280;41383;51.418;7.286;2023-06-22T05:50:42;100018.09;;;22.92;61.47
55538;BME280;41383;51.418;7.286;2023-06-22T05:53:07;100021.56;;;23.02;61.62
55538;BME280;41383;51.418;7.286;2023-06-22T05:55:33;100028.16;;;22.97;61.54
55538;BME280;41383;51.418;7.286;2023-06-22T05:57:58;100029.19;;;22.92;61.42
55538;BME280;41383;51.418;7.286;2023-06-22T06:00:23;100031.06;;;23.01;61.47
55538;BME280;41383;51.418;7.286;2023-06-22T06:02:49;100033.34;;;22.98;61.23
55538;BME280;41383;51.418;7.286;2023-06-22T06:05:14;100024.97;;;23.20;60.42
55538;BME280;41383;51.418;7.286;2023-06-22T06:07:44;100030.72;;;23.15;61.25
55538;BME280;41383;51.418;7.286;2023-06-22T06:10:10;100027.28;;;23.18;61.09
55538;BME280;41383;51.418;7.286;2023-06-22T06:12:36;100028.31;;;23.26;61.00
55538;BME280;41383;51.418;7.286;2023-06-22T06:15:01;100020.09;;;23.29;60.76
55538;BME280;41383;51.418;7.286;2023-06-22T06:17:27;100022.66;;;23.35;60.56
55538;BME280;41383;51.418;7.286;2023-06-22T06:19:52;100023.47;;;23.35;60.28
55538;BME280;41383;51.418;7.286;2023-06-22T06:22:18;100011.91;;;23.46;60.46
55538;BME280;41383;51.418;7.286;2023-06-22T06:24:44;100009.03;;;23.54;60.20
55538;BME280;41383;51.418;7.286;2023-06-22T06:27:09;100013.56;;;23.59;60.18
55538;BME280;41383;51.418;7.286;2023-06-22T06:29:34;100011.47;;;23.56;60.45
55538;BME280;41383;51.418;7.286;2023-06-22T06:32:00;100014.72;;;23.58;60.60
55538;BME280;41383;51.418;7.286;2023-06-22T06:34:25;100010.31;;;23.44;61.22
55538;BME280;41383;51.418;7.286;2023-06-22T06:36:50;100009.13;;;23.58;60.23
55538;BME280;41383;51.418;7.286;2023-06-22T06:39:15;100015.97;;;23.48;61.34
55538;BME280;41383;51.418;7.286;2023-06-22T06:41:41;100013.78;;;23.54;60.91
55538;BME280;41383;51.418;7.286;2023-06-22T06:44:06;100019.69;;;23.52;61.17
55538;BME280;41383;51.418;7.286;2023-06-22T06:46:32;100019.34;;;23.66;60.18
55538;BME280;41383;51.418;7.286;2023-06-22T06:48:57;100022.00;;;23.63;60.80
55538;BME280;41383;51.418;7.286;2023-06-22T06:51:22;100015.75;;;23.66;60.29
55538;BME280;41383;51.418;7.286;2023-06-22T06:53:48;100005.91;;;23.69;60.34
55538;BME280;41383;51.418;7.286;2023-06-22T06:56:13;100008.56;;;23.65;60.80
55538;BME280;41383;51.418;7.286;2023-06-22T06:58:41;100002.19;;;23.52;61.44
55538;BME280;41383;51.418;7.286;2023-06-22T07:01:11;100012.84;;;23.50;61.61
55538;BME280;41383;51.418;7.286;2023-06-22T07:03:37;100011.25;;;23.49;61.71
55538;BME280;41383;51.418;7.286;2023-06-22T07:06:02;100006.34;;;23.46;62.10
55538;BME280;41383;51.418;7.286;2023-06-22T07:08:27;100009.13;;;23.58;61.34
55538;BME280;41383;51.418;7.286;2023-06-22T07:10:52;100008.47;;;23.61;61.78
55538;BME280;41383;51.418;7.286;2023-06-22T07:13:18;100009.13;;;23.58;61.91
55538;BME280;41383;51.418;7.286;2023-06-22T07:15:43;100010.19;;;23.66;61.39
55538;BME280;41383;51.418;7.286;2023-06-22T07:18:08;100007.84;;;23.68;61.33
55538;BME280;41383;51.418;7.286;2023-06-22T07:20:33;100003.69;;;23.62;62.00
55538;BME280;41383;51.418;7.286;2023-06-22T07:22:59;100010.19;;;23.53;62.99
55538;BME280;41383;51.418;7.286;2023-06-22T07:25:24;100005.06;;;23.55;63.38
55538;BME280;41383;51.418;7.286;2023-06-22T07:28:01;100016.00;;;23.61;64.17
55538;BME280;41383;51.418;7.286;2023-06-22T07:30:27;100013.56;;;23.59;64.88
55538;BME280;41383;51.418;7.286;2023-06-22T07:32:53;99998.72;;;23.55;65.42
55538;BME280;41383;51.418;7.286;2023-06-22T07:35:18;99990.47;;;23.46;66.98
55538;BME280;41383;51.418;7.286;2023-06-22T07:37:44;99986.88;;;23.46;67.85
55538;BME280;41383;51.418;7.286;2023-06-22T07:40:10;99980.63;;;23.49;68.08
55538;BME280;41383;51.418;7.286;2023-06-22T07:42:35;99981.31;;;23.46;68.71
55538;BME280;41383;51.418;7.286;2023-06-22T07:45:02;99989.66;;;23.46;69.07
55538;BME280;41383;51.418;7.286;2023-06-22T07:47:28;99975.16;;;23.40;69.91
55538;BME280;41383;51.418;7.286;2023-06-22T07:49:54;99974.47;;;23.43;71.00
55538;BME280;41383;51.418;7.286;2023-06-22T07:52:20;99962.09;;;23.53;70.69
55538;BME280;41383;51.418;7.286;2023-06-22T07:54:46;99975.66;;;23.54;70.34
55538;BME280;41383;51.418;7.286;2023-06-22T07:57:11;99972.75;;;23.51;70.89
55538;BME280;41383;51.418;7.286;2023-06-22T07:59:37;99966.63;;;23.45;71.82
55538;BME280;41383;51.418;7.286;2023-06-22T08:02:02;99963.84;;;23.45;72.12
55538;BME280;41383;51.418;7.286;2023-06-22T08:04:28;99956.72;;;23.35;72.45
55538;BME280;41383;51.418;7.286;2023-06-22T08:06:54;99953.97;;;23.23;73.05
55538;BME280;41383;51.418;7.286;2023-06-22T08:09:19;99955.56;;;23.24;72.82
55538;BME280;41383;51.418;7.286;2023-06-22T08:11:44;99947.22;;;23.11;73.32
55538;BME280;41383;51.418;7.286;2023-06-22T08:14:09;99945.94;;;23.21;73.47
55538;BME280;41383;51.418;7.286;2023-06-22T08:16:35;99951.28;;;23.51;72.60
55538;BME280;41383;51.418;7.286;2023-06-22T08:19:00;99951.66;;;23.50;73.07
55538;BME280;41383;51.418;7.286;2023-06-22T08:21:25;99964.84;;;23.40;73.87
55538;BME280;41383;51.418;7.286;2023-06-22T08:23:51;99949.94;;;23.45;73.12
55538;BME280;41383;51.418;7.286;2023-06-22T08:26:16;99953.00;;;23.43;72.96
55538;BME280;41383;51.418;7.286;2023-06-22T08:28:41;99941.22;;;23.47;72.70
55538;BME280;41383;51.418;7.286;2023-06-22T08:31:06;99921.75;;;23.59;73.20
55538;BME280;41383;51.418;7.286;2023-06-22T08:33:32;99926.38;;;23.67;73.17
55538;BME280;41383;51.418;7.286;2023-06-22T08:35:58;99916.13;;;23.72;72.84
55538;BME280;41383;51.418;7.286;2023-06-22T08:38:24;99921.69;;;23.84;72.92
55538;BME280;41383;51.418;7.286;2023-06-22T08:40:50;99917.44;;;24.03;71.71
55538;BME280;41383;51.418;7.286;2023-06-22T08:43:15;99922.53;;;24.13;71.17
55538;BME280;41383;51.418;7.286;2023-06-22T08:45:40;99913.84;;;24.02;72.43
55538;BME280;41383;51.418;7.286;2023-06-22T08:48:05;99914.94;;;23.98;73.50
55538;BME280;41383;51.418;7.286;2023-06-22T08:50:31;99910.78;;;23.92;73.40
55538;BME280;41383;51.418;7.286;2023-06-22T08:52:56;99910.38;;;24.06;73.39
55538;BME280;41383;51.418;7.286;2023-06-22T08:55:21;99900.94;;;24.10;72.66
55538;BME280;41383;51.418;7.286;2023-06-22T08:57:46;99901.66;;;24.07;73.30
55538;BME280;41383;51.418;7.286;2023-06-22T09:00:12;99907.66;;;24.22;73.15
55538;BME280;41383;51.418;7.286;2023-06-22T09:02:43;99889.50;;;24.41;72.23
55538;BME280;41383;51.418;7.286;2023-06-22T09:05:09;99901.00;;;24.71;72.31
55538;BME280;41383;51.418;7.286;2023-06-22T09:07:34;99890.53;;;24.97;70.33
55538;BME280;41383;51.418;7.286;2023-06-22T09:09:59;99896.28;;;25.04;69.42
55538;BME280;41383;51.418;7.286;2023-06-22T09:12:25;99888.53;;;25.14;69.07
55538;BME280;41383;51.418;7.286;2023-06-22T09:14:52;99890.88;;;25.12;69.31
55538;BME280;41383;51.418;7.286;2023-06-22T09:17:17;99886.00;;;25.09;69.27
55538;BME280;41383;51.418;7.286;2023-06-22T09:19:42;99872.78;;;25.22;69.22
55538;BME280;41383;51.418;7.286;2023-06-22T09:22:08;99863.63;;;25.41;67.42
55538;BME280;41383;51.418;7.286;2023-06-22T09:24:33;99867.31;;;25.45;67.16
55538;BME280;41383;51.418;7.286;2023-06-22T09:26:58;99871.25;;;25.60;65.91
55538;BME280;41383;51.418;7.286;2023-06-22T09:29:24;99872.88;;;25.81;65.54
55538;BME280;41383;51.418;7.286;2023-06-22T09:31:49;99860.47;;;25.79;64.52
55538;BME280;41383;51.418;7.286;2023-06-22T09:34:15;99855.91;;;25.90;64.06
55538;BME280;41383;51.418;7.286;2023-06-22T09:36:45;99853.78;;;26.03;63.47
55538;BME280;41383;51.418;7.286;2023-06-22T09:39:10;99843.41;;;26.04;62.81
55538;BME280;41383;51.418;7.286;2023-06-22T09:41:35;99832.50;;;26.18;61.99
55538;BME280;41383;51.418;7.286;2023-06-22T09:44:01;99838.09;;;26.18;61.71
55538;BME280;41383;51.418;7.286;2023-06-22T09:46:26;99836.50;;;26.17;62.94
55538;BME280;41383;51.418;7.286;2023-06-22T09:48:51;99837.56;;;26.32;62.01
55538;BME280;41383;51.418;7.286;2023-06-22T09:51:16;99842.50;;;26.39;61.09
55538;BME280;41383;51.418;7.286;2023-06-22T09:53:42;99837.78;;;26.43;60.94
55538;BME280;41383;51.418;7.286;2023-06-22T09:56:07;99842.63;;;26.46;60.98
55538;BME280;41383;51.418;7.286;2023-06-22T09:58:36;99837.03;;;26.46;60.70
55538;BME280;41383;51.418;7.286;2023-06-22T10:01:01;99838.66;;;26.48;60.13
55538;BME280;41383;51.418;7.286;2023-06-22T10:03:26;99833.88;;;26.48;59.63
55538;BME280;41383;51.418;7.286;2023-06-22T10:05:52;99822.06;;;26.58;58.98
55538;BME280;41383;51.418;7.286;2023-06-22T10:08:17;99818.63;;;26.69;58.15
55538;BME280;41383;51.418;7.286;2023-06-22T10:10:42;99809.94;;;26.74;58.82
55538;BME280;41383;51.418;7.286;2023-06-22T10:13:09;99811.97;;;26.77;58.24
55538;BME280;41383;51.418;7.286;2023-06-22T10:15:35;99807.69;;;26.84;57.37
55538;BME280;41383;51.418;7.286;2023-06-22T10:18:00;99814.94;;;26.88;57.71
55538;BME280;41383;51.418;7.286;2023-06-22T10:20:26;99816.97;;;26.91;57.49
55538;BME280;41383;51.418;7.286;2023-06-22T10:22:51;99809.94;;;27.01;56.83
55538;BME280;41383;51.418;7.286;2023-06-22T10:25:16;99807.56;;;27.03;56.97
55538;BME280;41383;51.418;7.286;2023-06-22T10:27:42;99800.38;;;27.02;57.66
55538;BME280;41383;51.418;7.286;2023-06-22T10:30:08;99794.78;;;27.02;57.79
55538;BME280;41383;51.418;7.286;2023-06-22T10:32:34;99796.66;;;27.22;57.66
55538;BME280;41383;51.418;7.286;2023-06-22T10:34:59;99802.69;;;27.24;57.57
55538;BME280;41383;51.418;7.286;2023-06-22T10:37:25;99802.88;;;27.08;57.49
55538;BME280;41383;51.418;7.286;2023-06-22T10:39:50;99804.09;;;27.10;58.29
55538;BME280;41383;51.418;7.286;2023-06-22T10:42:15;99792.16;;;27.13;58.37
55538;BME280;41383;51.418;7.286;2023-06-22T10:44:40;99796.72;;;27.25;58.12
55538;BME280;41383;51.418;7.286;2023-06-22T10:47:08;99779.22;;;27.32;57.87
55538;BME280;41383;51.418;7.286;2023-06-22T10:49:33;99788.28;;;27.22;58.44
55538;BME280;41383;51.418;7.286;2023-06-22T10:51:58;99781.81;;;27.18;58.93
55538;BME280;41383;51.418;7.286;2023-06-22T10:54:24;99789.50;;;26.97;59.22
55538;BME280;41383;51.418;7.286;2023-06-22T10:56:49;99793.06;;;26.94;59.56
55538;BME280;41383;51.418;7.286;2023-06-22T10:59:14;99802.78;;;26.77;59.63
55538;BME280;41383;51.418;7.286;2023-06-22T11:01:40;99813.94;;;26.50;60.95
55538;BME280;41383;51.418;7.286;2023-06-22T11:04:05;99829.97;;;26.33;62.10
55538;BME280;41383;51.418;7.286;2023-06-22T11:06:30;99838.09;;;26.18;61.91
55538;BME280;41383;51.418;7.286;2023-06-22T11:08:55;99843.13;;;26.09;62.53
55538;BME280;41383;51.418;7.286;2023-06-22T11:11:21;99853.53;;;26.12;62.58
55538;BME280;41383;51.418;7.286;2023-06-22T11:13:46;99849.38;;;26.02;63.84
55538;BME280;41383;51.418;7.286;2023-06-22T11:16:11;99853.50;;;25.88;64.22
55538;BME280;41383;51.418;7.286;2023-06-22T11:18:36;99848.28;;;25.87;65.80
55538;BME280;41383;51.418;7.286;2023-06-22T11:21:02;99856.50;;;25.80;68.05
55538;BME280;41383;51.418;7.286;2023-06-22T11:23:27;99850.78;;;25.72;69.09
55538;BME280;41383;51.418;7.286;2023-06-22T11:25:54;99852.59;;;25.64;70.82
55538;BME280;41383;51.418;7.286;2023-06-22T11:28:19;99844.88;;;25.58;71.97
55538;BME280;41383;51.418;7.286;2023-06-22T11:30:44;99839.28;;;25.58;72.89
55538;BME280;41383;51.418;7.286;2023-06-22T11:33:09;99846.19;;;25.44;73.58
55538;BME280;41383;51.418;7.286;2023-06-22T11:35:35;99838.00;;;25.35;74.56
55538;BME280;41383;51.418;7.286;2023-06-22T11:38:00;99849.97;;;25.36;74.85
55538;BME280;41383;51.418;7.286;2023-06-22T11:40:25;99844.16;;;25.25;75.36
55538;BME280;41383;51.418;7.286;2023-06-22T11:42:51;99831.13;;;25.13;76.85
55538;BME280;41383;51.418;7.286;2023-06-22T11:45:16;99825.66;;;25.00;76.70
55538;BME280;41383;51.418;7.286;2023-06-22T11:47:43;99828.81;;;24.99;77.46
55538;BME280;41383;51.418;7.286;2023-06-22T11:50:08;99838.38;;;24.81;78.12
55538;BME280;41383;51.418;7.286;2023-06-22T11:52:34;99837.63;;;24.84;77.85
55538;BME280;41383;51.418;7.286;2023-06-22T11:55:01;99843.50;;;24.79;78.82
55538;BME280;41383;51.418;7.286;2023-06-22T11:57:28;99848.63;;;24.77;78.99
55538;BME280;41383;51.418;7.286;2023-06-22T11:59:54;99852.56;;;24.76;79.02
55538;BME280;41383;51.418;7.286;2023-06-22T12:02:19;99841.69;;;24.71;79.48
55538;BME280;41383;51.418;7.286;2023-06-22T12:04:44;99838.72;;;24.64;79.79
55538;BME280;41383;51.418;7.286;2023-06-22T12:07:09;99840.50;;;24.56;80.27
55538;BME280;41383;51.418;7.286;2023-06-22T12:09:34;99823.88;;;24.43;81.12
55538;BME280;41383;51.418;7.286;2023-06-22T12:12:00;99803.31;;;24.48;80.89
55538;BME280;41383;51.418;7.286;2023-06-22T12:14:25;99789.91;;;24.54;81.20
55538;BME280;41383;51.418;7.286;2023-06-22T12:16:50;99790.63;;;24.67;80.55
55538;BME280;41383;51.418;7.286;2023-06-22T12:19:15;99787.47;;;24.68;80.75
55538;BME280;41383;51.418;7.286;2023-06-22T12:21:41;99776.97;;;24.62;81.25
55538;BME280;41383;51.418;7.286;2023-06-22T12:24:06;99772.22;;;24.46;83.09
55538;BME280;41383;51.418;7.286;2023-06-22T12:26:31;99760.63;;;24.44;83.52
55538;BME280;41383;51.418;7.286;2023-06-22T12:28:56;99745.78;;;24.40;82.97
55538;BME280;41383;51.418;7.286;2023-06-22T12:31:22;99737.97;;;24.29;83.02
55538;BME280;41383;51.418;7.286;2023-06-22T12:33:47;99743.25;;;24.18;83.65
55538;BME280;41383;51.418;7.286;2023-06-22T12:36:13;99733.63;;;24.16;83.21
55538;BME280;41383;51.418;7.286;2023-06-22T12:38:38;99724.31;;;24.08;84.10
55538;BME280;41383;51.418;7.286;2023-06-22T12:41:03;99702.81;;;24.08;83.98
55538;BME280;41383;51.418;7.286;2023-06-22T12:43:28;99684.50;;;24.07;82.98
55538;BME280;41383;51.418;7.286;2023-06-22T12:45:54;99691.06;;;23.99;83.23
55538;BME280;41383;51.418;7.286;2023-06-22T12:48:19;99699.31;;;23.95;83.10
55538;BME280;41383;51.418;7.286;2023-06-22T12:50:45;99710.91;;;23.97;83.32
55538;BME280;41383;51.418;7.286;2023-06-22T12:53:11;99693.84;;;23.99;83.45
55538;BME280;41383;51.418;7.286;2023-06-22T12:55:37;99683.97;;;24.01;83.51